createdAt,value
2023-03-13T00:01:24.514Z,99195.94
2023-03-13T00:03:51.707Z,99192.47
2023-03-13T00:06:19.099Z,99191.47
2023-03-13T00:08:46.436Z,99179.06
2023-03-13T00:11:14.450Z,99184.91
2023-03-13T00:13:42.262Z,99159.50
2023-03-13T00:16:10.786Z,99157.47
2023-03-13T00:18:38.411Z,99152.16
2023-03-13T00:21:07.052Z,99145.69
2023-03-13T00:23:34.901Z,99135.69
2023-03-13T00:26:03.370Z,99135.69
2023-03-13T00:28:32.660Z,99127.00
2023-03-13T00:31:01.808Z,99119.84
2023-03-13T00:33:29.167Z,99118.00
2023-03-13T00:35:59.580Z,99121.88
2023-03-13T00:38:27.696Z,99100.72
2023-03-13T00:40:59.355Z,99115.53
2023-03-13T00:43:26.457Z,99119.59
2023-03-13T00:45:53.620Z,99109.41
2023-03-13T00:48:20.711Z,99106.78
2023-03-13T00:50:47.916Z,99101.94
2023-03-13T00:53:15.194Z,99090.53
2023-03-13T00:55:50.535Z,99119.22
2023-03-13T00:58:17.600Z,99109.22
2023-03-13T01:00:44.611Z,99101.06
2023-03-13T01:03:11.799Z,99105.56
2023-03-13T01:05:38.863Z,99113.94
2023-03-13T01:08:06.005Z,99109.66
2023-03-13T01:10:33.012Z,99087.69
2023-03-13T01:13:00.069Z,99088.72
2023-03-13T01:15:27.263Z,99061.47
2023-03-13T01:17:54.281Z,99079.16
2023-03-13T01:20:21.489Z,99100.53
2023-03-13T01:22:48.545Z,99086.88
2023-03-13T01:25:15.796Z,99091.16
2023-03-13T01:27:42.872Z,99093.56
2023-03-13T01:30:10.641Z,99097.00
2023-03-13T01:32:37.740Z,99101.50
2023-03-13T01:35:05.070Z,99090.91
2023-03-13T01:37:32.037Z,99088.88
2023-03-13T01:39:59.259Z,99081.75
2023-03-13T01:42:26.237Z,99081.16
2023-03-13T01:44:55.929Z,99047.81
2023-03-13T01:47:23.001Z,99061.63
2023-03-13T01:49:51.726Z,99036.81
2023-03-13T01:52:21.960Z,99045.75
2023-03-13T01:54:52.257Z,99052.06
2023-03-13T01:57:22.354Z,99058.97
2023-03-13T01:59:53.321Z,99034.38
2023-03-13T02:02:20.885Z,99028.66
2023-03-13T02:04:49.402Z,99006.44
2023-03-13T02:07:18.792Z,99008.31
2023-03-13T02:09:49.630Z,99021.09
2023-03-13T02:12:19.588Z,99007.88
2023-03-13T02:14:47.358Z,99011.31
2023-03-13T02:17:14.648Z,99013.16
2023-03-13T02:19:45.079Z,99014.78
2023-03-13T02:22:14.989Z,98994.44
2023-03-13T02:24:44.890Z,99008.66
2023-03-13T02:27:12.492Z,99007.88
2023-03-13T02:29:39.405Z,99001.91
2023-03-13T02:32:06.563Z,98987.53
2023-03-13T02:34:35.815Z,98990.97
2023-03-13T02:37:03.592Z,98982.22
2023-03-13T02:39:32.075Z,98989.94
2023-03-13T02:42:00.385Z,98971.19
2023-03-13T02:44:27.612Z,98975.47
2023-03-13T02:46:54.515Z,98968.56
2023-03-13T02:49:24.610Z,98972.81
2023-03-13T02:51:52.781Z,98963.50
2023-03-13T02:54:22.729Z,98961.06
2023-03-13T02:56:52.382Z,98960.13
2023-03-13T02:59:19.249Z,98945.28
2023-03-13T03:01:46.291Z,98947.34
2023-03-13T03:04:13.427Z,98949.19
2023-03-13T03:06:40.295Z,98943.75
2023-03-13T03:09:07.168Z,98939.28
2023-03-13T03:11:34.005Z,98946.16
2023-03-13T03:14:01.569Z,98936.03
2023-03-13T03:16:28.610Z,98936.03
2023-03-13T03:18:55.455Z,98929.94
2023-03-13T03:21:24.234Z,98928.91
2023-03-13T03:23:51.628Z,98933.19
2023-03-13T03:26:18.514Z,98929.72
2023-03-13T03:28:45.662Z,98929.94
2023-03-13T03:31:14.132Z,98921.19
2023-03-13T03:33:41.060Z,98916.94
2023-03-13T03:36:09.464Z,98914.75
2023-03-13T03:38:36.676Z,98920.22
2023-03-13T03:41:03.698Z,98909.00
2023-03-13T03:43:30.567Z,98916.34
2023-03-13T03:45:57.518Z,98907.63
2023-03-13T03:48:24.498Z,98910.47
2023-03-13T03:50:51.407Z,98898.28
2023-03-13T03:53:18.268Z,98894.63
2023-03-13T03:55:45.514Z,98891.41
2023-03-13T03:58:12.523Z,98896.44
2023-03-13T04:00:39.636Z,98885.44
2023-03-13T04:03:06.820Z,98887.41
2023-03-13T04:05:33.694Z,98909.94
2023-03-13T04:08:00.638Z,98891.69
2023-03-13T04:10:27.502Z,98913.03
2023-03-13T04:12:54.384Z,98922.00
2023-03-13T04:15:21.311Z,98925.47
2023-03-13T04:17:48.238Z,98917.31
2023-03-13T04:20:15.340Z,98922.00
2023-03-13T04:22:42.856Z,98913.03
2023-03-13T04:25:10.320Z,98918.34
2023-03-13T04:27:37.245Z,98910.19
2023-03-13T04:30:04.884Z,98905.94
2023-03-13T04:32:31.833Z,98903.84
2023-03-13T04:34:59.141Z,98904.09
2023-03-13T04:37:26.201Z,98889.03
2023-03-13T04:39:53.133Z,98880.66
2023-03-13T04:42:20.075Z,98883.09
2023-03-13T04:44:46.992Z,98868.59
2023-03-13T04:47:14.038Z,98864.56
2023-03-13T04:49:40.987Z,98852.94
2023-03-13T04:52:07.934Z,98856.19
2023-03-13T04:54:34.800Z,98848.59
2023-03-13T04:57:01.729Z,98857.34
2023-03-13T04:59:28.612Z,98843.31
2023-03-13T05:01:55.574Z,98824.00
2023-03-13T05:04:22.428Z,98809.63
2023-03-13T05:06:49.266Z,98823.84
2023-03-13T05:09:16.189Z,98831.78
2023-03-13T05:11:43.067Z,98832.59
2023-03-13T05:14:13.079Z,98849.13
2023-03-13T05:16:39.981Z,98843.44
2023-03-13T05:19:06.842Z,98837.47
2023-03-13T05:21:33.681Z,98826.63
2023-03-13T05:24:00.592Z,98825.84
2023-03-13T05:26:27.547Z,98839.28
2023-03-13T05:28:54.376Z,98836.88
2023-03-13T05:31:21.293Z,98853.63
2023-03-13T05:33:48.202Z,98842.47
2023-03-13T05:36:15.115Z,98827.03
2023-03-13T05:38:42.279Z,98819.91
2023-03-13T05:41:09.152Z,98827.28
2023-03-13T05:43:36.042Z,98823.84
2023-03-13T05:46:03.024Z,98820.16
2023-03-13T05:48:29.916Z,98824.66
2023-03-13T05:50:56.861Z,98816.25
2023-03-13T05:53:23.714Z,98823.16
2023-03-13T05:55:50.604Z,98816.84
2023-03-13T05:58:17.554Z,98824.31
2023-03-13T06:00:44.726Z,98831.78
2023-03-13T06:03:17.388Z,98823.78
2023-03-13T06:05:44.325Z,98829.06
2023-03-13T06:08:11.211Z,98826.63
2023-03-13T06:10:38.092Z,98825.63
2023-03-13T06:13:18.748Z,98819.09
2023-03-13T06:15:50.138Z,98831.03
2023-03-13T06:18:17.222Z,98823.34
2023-03-13T06:20:44.196Z,98825.41
2023-03-13T06:23:11.220Z,98807.03
2023-03-13T06:25:39.020Z,98809.44
2023-03-13T06:28:06.178Z,98823.47
2023-03-13T06:30:33.243Z,98816.91
2023-03-13T06:33:00.483Z,98813.47
2023-03-13T06:35:27.564Z,98822.44
2023-03-13T06:37:54.644Z,98800.72
2023-03-13T06:40:21.808Z,98806.69
2023-03-13T06:42:48.877Z,98810.13
2023-03-13T06:45:15.992Z,98787.69
2023-03-13T06:47:43.144Z,98790.94
2023-03-13T06:50:10.694Z,98783.44
2023-03-13T06:52:43.853Z,98790.94
2023-03-13T06:55:12.084Z,98792.09
2023-03-13T06:57:39.250Z,98767.47
2023-03-13T07:00:07.651Z,98791.50
2023-03-13T07:02:34.636Z,98793.13
2023-03-13T07:05:06.055Z,98788.41
2023-03-13T07:07:34.447Z,98771.16
2023-03-13T07:10:01.977Z,98775.41
2023-03-13T07:12:29.362Z,98769.31
2023-03-13T07:15:00.374Z,98768.28
2023-03-13T07:17:27.496Z,98758.88
2023-03-13T07:19:54.694Z,98765.91
2023-03-13T07:22:21.736Z,98749.34
2023-03-13T07:24:49.386Z,98754.63
2023-03-13T07:27:17.884Z,98749.34
2023-03-13T07:29:45.495Z,98745.88
2023-03-13T07:32:12.691Z,98749.94
2023-03-13T07:34:39.782Z,98741.53
2023-03-13T07:37:06.803Z,98744.16
2023-03-13T07:39:33.824Z,98751.88
2023-03-13T07:42:00.893Z,98751.41
2023-03-13T07:44:27.929Z,98735.91
2023-03-13T07:46:55.017Z,98728.22
2023-03-13T07:49:22.042Z,98731.28
2023-03-13T07:51:51.601Z,98730.63
2023-03-13T07:54:18.781Z,98717.19
2023-03-13T07:56:45.879Z,98737.66
2023-03-13T07:59:12.991Z,98736.41
2023-03-13T08:01:40.103Z,98727.19
2023-03-13T08:04:07.673Z,98721.09
2023-03-13T08:06:36.992Z,98726.38
2023-03-13T08:09:04.932Z,98721.09
2023-03-13T08:11:33.658Z,98723.97
2023-03-13T08:14:00.642Z,98731.09
2023-03-13T08:16:29.212Z,98742.59
2023-03-13T08:18:57.327Z,98740.19
2023-03-13T08:21:28.041Z,98746.50
2023-03-13T08:23:56.136Z,98737.53
2023-03-13T08:26:24.210Z,98724.56
2023-03-13T08:28:53.807Z,98711.50
2023-03-13T08:31:22.375Z,98734.34
2023-03-13T08:33:49.718Z,98742.69
2023-03-13T08:36:19.625Z,98730.72
2023-03-13T08:38:47.725Z,98724.63
2023-03-13T08:41:17.350Z,98738.66
2023-03-13T08:43:44.662Z,98736.22
2023-03-13T08:46:12.472Z,98716.22
2023-03-13T08:48:39.760Z,98729.44
2023-03-13T08:51:08.046Z,98713.00
2023-03-13T08:53:35.997Z,98707.06
2023-03-13T08:56:03.580Z,98719.25
2023-03-13T08:58:30.602Z,98698.09
2023-03-13T09:01:00.708Z,98706.16
2023-03-13T09:03:27.829Z,98708.53
2023-03-13T09:05:56.569Z,98705.78
2023-03-13T09:08:23.906Z,98690.03
2023-03-13T09:10:54.215Z,98712.34
2023-03-13T09:13:21.277Z,98696.56
2023-03-13T09:15:54.492Z,98705.66
2023-03-13T09:18:21.877Z,98698.19
2023-03-13T09:20:52.302Z,98686.28
2023-03-13T09:23:19.696Z,98696.75
2023-03-13T09:25:47.054Z,98692.13
2023-03-13T09:28:14.297Z,98685.66
2023-03-13T09:30:41.364Z,98681.28
2023-03-13T09:33:08.431Z,98679.75
2023-03-13T09:35:35.654Z,98685.38
2023-03-13T09:38:02.776Z,98677.03
2023-03-13T09:40:30.158Z,98677.63
2023-03-13T09:42:59.185Z,98696.59
2023-03-13T09:45:27.741Z,98680.47
2023-03-13T09:48:00.263Z,98686.69
2023-03-13T09:50:30.183Z,98687.81
2023-03-13T09:53:01.023Z,98694.81
2023-03-13T09:55:31.152Z,98696.53
2023-03-13T09:58:01.486Z,98693.56
2023-03-13T10:00:32.092Z,98691.38
2023-03-13T10:02:59.719Z,98693.22
2023-03-13T10:05:28.320Z,98705.56
2023-03-13T10:08:03.745Z,98684.72
2023-03-13T10:10:34.303Z,98708.72
2023-03-13T10:13:10.924Z,98686.59
2023-03-13T10:15:41.074Z,98686.97
2023-03-13T10:18:11.348Z,98683.00
2023-03-13T10:20:39.913Z,98684.63
2023-03-13T10:23:13.893Z,98702.38
2023-03-13T10:25:41.658Z,98689.78
2023-03-13T10:28:12.053Z,98705.94
2023-03-13T10:30:43.966Z,98703.03
2023-03-13T10:33:12.543Z,98712.59
2023-03-13T10:35:42.394Z,98702.25
2023-03-13T10:38:12.536Z,98705.44
2023-03-13T10:40:40.431Z,98713.28
2023-03-13T10:43:14.985Z,98722.28
2023-03-13T10:45:42.465Z,98712.75
2023-03-13T10:48:13.186Z,98704.88
2023-03-13T10:50:43.110Z,98725.03
2023-03-13T10:53:21.619Z,98711.00
2023-03-13T10:55:49.178Z,98719.50
2023-03-13T10:58:19.664Z,98711.00
2023-03-13T11:00:46.950Z,98731.75
2023-03-13T11:03:18.992Z,98740.59
2023-03-13T11:05:55.851Z,98722.16
2023-03-13T11:08:25.193Z,98716.94
2023-03-13T11:10:53.900Z,98712.84
2023-03-13T11:13:35.537Z,98722.50
2023-03-13T11:16:08.634Z,98714.47
2023-03-13T11:18:39.097Z,98728.44
2023-03-13T11:21:17.541Z,98715.03
2023-03-13T11:23:48.386Z,98723.84
2023-03-13T11:26:16.846Z,98708.53
2023-03-13T11:28:51.178Z,98731.34
2023-03-13T11:31:21.440Z,98724.75
2023-03-13T11:33:58.201Z,98722.44
2023-03-13T11:36:29.253Z,98714.16
2023-03-13T11:39:03.106Z,98704.09
2023-03-13T11:41:36.148Z,98703.63
2023-03-13T11:44:05.741Z,98702.13
2023-03-13T11:46:37.817Z,98702.91
2023-03-13T11:49:08.124Z,98700.09
2023-03-13T11:51:44.902Z,98694.88
2023-03-13T11:54:15.096Z,98696.78
2023-03-13T11:56:45.322Z,98691.66
2023-03-13T11:59:16.708Z,98680.41
2023-03-13T12:01:50.029Z,98678.56
2023-03-13T12:04:17.635Z,98677.75
2023-03-13T12:06:52.864Z,98688.13
2023-03-13T12:09:27.844Z,98676.06
2023-03-13T12:12:03.802Z,98674.78
2023-03-13T12:14:34.550Z,98668.09
2023-03-13T12:17:04.600Z,98651.94
2023-03-13T12:19:33.304Z,98654.09
2023-03-13T12:22:07.927Z,98658.88
2023-03-13T12:24:39.016Z,98647.91
2023-03-13T12:27:10.412Z,98638.09
2023-03-13T12:29:43.108Z,98647.44
2023-03-13T12:32:15.834Z,98651.13
2023-03-13T12:34:46.300Z,98660.38
2023-03-13T12:37:23.467Z,98632.50
2023-03-13T12:39:55.544Z,98638.59
2023-03-13T12:42:30.194Z,98644.38
2023-03-13T12:45:02.884Z,98635.28
2023-03-13T12:47:37.586Z,98641.09
2023-03-13T12:50:06.151Z,98644.22
2023-03-13T12:52:37.900Z,98641.56
2023-03-13T12:55:08.476Z,98644.22
2023-03-13T12:57:38.088Z,98625.91
2023-03-13T13:00:14.273Z,98626.44
2023-03-13T13:02:42.089Z,98612.97
2023-03-13T13:05:21.631Z,98630.00
2023-03-13T13:10:46.032Z,98635.41
2023-03-13T13:13:14.840Z,98635.78
2023-03-13T13:15:47.531Z,98631.91
2023-03-13T13:18:16.953Z,98629.19
2023-03-13T13:20:46.699Z,98618.69
2023-03-13T13:23:18.503Z,98618.06
2023-03-13T13:26:04.140Z,98621.97
2023-03-13T13:28:35.570Z,98593.84
2023-03-13T13:31:31.001Z,98616.34
2023-03-13T13:33:59.605Z,98601.25
2023-03-13T13:36:29.195Z,98609.13
2023-03-13T13:38:57.659Z,98597.28
2023-03-13T13:41:27.304Z,98592.22
2023-03-13T13:43:57.915Z,98585.63
2023-03-13T13:46:25.829Z,98590.94
2023-03-13T13:48:56.551Z,98578.19
2023-03-13T13:51:25.705Z,98565.25
2023-03-13T13:53:56.544Z,98555.69
2023-03-13T13:56:27.685Z,98566.28
2023-03-13T13:59:02.153Z,98571.34
2023-03-13T14:01:30.203Z,98547.59
2023-03-13T14:04:00.628Z,98545.59
2023-03-13T14:06:31.272Z,98543.28
2023-03-13T14:09:03.260Z,98540.53
2023-03-13T14:11:36.218Z,98544.81
2023-03-13T14:14:10.198Z,98549.59
2023-03-13T14:16:38.663Z,98539.31
2023-03-13T14:19:06.430Z,98534.59
2023-03-13T14:21:36.951Z,98520.63
2023-03-13T14:24:13.210Z,98527.03
2023-03-13T14:26:43.391Z,98522.19
2023-03-13T14:29:27.535Z,98519.03
2023-03-13T14:31:58.796Z,98522.00
2023-03-13T14:34:27.681Z,98518.88
2023-03-13T14:37:10.948Z,98510.84
2023-03-13T14:39:45.849Z,98514.63
2023-03-13T14:42:14.171Z,98510.94
2023-03-13T14:44:44.408Z,98511.53
2023-03-13T14:47:15.101Z,98514.75
2023-03-13T14:49:45.836Z,98514.53
2023-03-13T14:52:16.164Z,98525.06
2023-03-13T14:54:46.220Z,98517.50
2023-03-13T14:57:15.426Z,98522.09
2023-03-13T14:59:43.599Z,98515.09
2023-03-13T15:02:13.906Z,98518.78
2023-03-13T15:04:44.491Z,98531.78
2023-03-13T15:07:11.973Z,98533.63
2023-03-13T15:09:43.067Z,98524.56
2023-03-13T15:12:17.345Z,98517.66
2023-03-13T15:14:46.575Z,98527.22
2023-03-13T15:17:16.243Z,98505.75
2023-03-13T15:19:44.194Z,98509.47
2023-03-13T15:22:13.410Z,98503.03
2023-03-13T15:24:41.072Z,98505.13
2023-03-13T15:27:11.604Z,98512.66
2023-03-13T15:29:38.943Z,98496.22
2023-03-13T15:32:06.616Z,98480.47
2023-03-13T15:34:34.624Z,98483.94
2023-03-13T15:37:02.080Z,98474.44
2023-03-13T15:39:29.785Z,98456.25
2023-03-13T15:42:03.282Z,98440.97
2023-03-13T15:44:30.783Z,98450.59
2023-03-13T15:46:58.062Z,98438.63
2023-03-13T15:49:25.356Z,98429.09
2023-03-13T15:51:54.491Z,98425.94
2023-03-13T15:54:22.874Z,98417.56
2023-03-13T15:56:50.232Z,98408.66
2023-03-13T15:59:17.500Z,98407.41
2023-03-13T16:01:46.697Z,98407.41
2023-03-13T16:04:14.432Z,98397.31
2023-03-13T16:06:41.985Z,98389.72
2023-03-13T16:09:09.216Z,98393.41
2023-03-13T16:11:41.047Z,98393.09
2023-03-13T16:14:08.192Z,98375.34
2023-03-13T16:16:37.446Z,98369.47
2023-03-13T16:19:05.216Z,98371.31
2023-03-13T16:21:35.523Z,98369.72
2023-03-13T16:24:02.894Z,98358.56
2023-03-13T16:26:31.530Z,98356.59
2023-03-13T16:28:59.458Z,98338.78
2023-03-13T16:31:28.954Z,98353.81
2023-03-13T16:33:57.350Z,98341.81
2023-03-13T16:36:25.748Z,98337.84
2023-03-13T16:38:53.500Z,98339.38
2023-03-13T16:41:22.149Z,98341.50
2023-03-13T16:43:49.923Z,98330.56
2023-03-13T16:46:24.421Z,98320.72
2023-03-13T16:48:57.678Z,98326.56
2023-03-13T16:54:10.642Z,98320.97
2023-03-13T16:56:40.138Z,98310.84
2023-03-13T16:59:11.290Z,98313.25
2023-03-13T17:01:44.421Z,98306.94
2023-03-13T17:04:16.820Z,98302.66
2023-03-13T17:09:37.154Z,98306.59
2023-03-13T17:12:07.318Z,98297.78
2023-03-13T17:14:44.464Z,98291.88
2023-03-13T17:17:14.184Z,98296.59
2023-03-13T17:19:43.118Z,98293.41
2023-03-13T17:22:14.101Z,98290.69
2023-03-13T17:24:42.318Z,98281.06
2023-03-13T17:27:13.728Z,98288.22
2023-03-13T17:29:41.523Z,98287.63
2023-03-13T17:32:12.680Z,98293.50
2023-03-13T17:34:41.301Z,98289.16
2023-03-13T17:37:15.926Z,98287.81
2023-03-13T17:39:44.237Z,98292.31
2023-03-13T17:42:12.343Z,98287.81
2023-03-13T17:44:39.978Z,98292.78
2023-03-13T17:47:10.154Z,98310.28
2023-03-13T17:49:37.505Z,98305.94
2023-03-13T17:52:05.427Z,98297.38
2023-03-13T17:54:32.902Z,98302.53
2023-03-13T17:57:00.398Z,98295.31
2023-03-13T17:59:29.404Z,98311.91
2023-03-13T18:01:57.773Z,98297.19
2023-03-13T18:04:25.535Z,98311.63
2023-03-13T18:06:52.780Z,98313.38
2023-03-13T18:09:21.618Z,98300.16
2023-03-13T18:11:52.735Z,98305.66
2023-03-13T18:14:20.489Z,98298.09
2023-03-13T18:16:48.726Z,98307.72
2023-03-13T18:19:34.219Z,98303.47
2023-03-13T18:22:19.358Z,98305.53
2023-03-13T18:24:47.040Z,98294.06
2023-03-13T18:27:15.670Z,98297.66
2023-03-13T18:29:43.497Z,98298.72
2023-03-13T18:32:12.721Z,98301.59
2023-03-13T18:34:40.055Z,98294.59
2023-03-13T18:37:16.705Z,98293.69
2023-03-13T18:39:44.240Z,98289.34
2023-03-13T18:42:11.412Z,98287.91
2023-03-13T18:44:38.715Z,98289.63
2023-03-13T18:47:11.983Z,98279.66
2023-03-13T18:49:39.318Z,98274.69
2023-03-13T18:52:07.055Z,98268.59
2023-03-13T18:54:34.105Z,98265.38
2023-03-13T18:57:01.299Z,98267.47
2023-03-13T18:59:28.357Z,98256.66
2023-03-13T19:01:55.964Z,98257.22
2023-03-13T19:04:24.815Z,98249.78
2023-03-13T19:06:53.909Z,98251.53
2023-03-13T19:12:12.045Z,98242.47
2023-03-13T19:14:39.276Z,98238.13
2023-03-13T19:17:12.435Z,98232.59
2023-03-13T19:19:39.557Z,98242.09
2023-03-13T19:22:06.656Z,98243.63
2023-03-13T19:24:33.896Z,98245.72
2023-03-13T19:27:01.010Z,98239.53
2023-03-13T19:29:28.707Z,98241.81
2023-03-13T19:31:55.978Z,98232.97
2023-03-13T19:34:23.300Z,98238.84
2023-03-13T19:36:50.736Z,98234.38
2023-03-13T19:39:19.276Z,98234.28
2023-03-13T19:41:48.312Z,98238.97
2023-03-13T19:44:16.354Z,98230.03
2023-03-13T19:46:43.828Z,98230.81
2023-03-13T19:49:12.362Z,98223.00
2023-03-13T19:51:39.723Z,98225.06
2023-03-13T19:54:06.755Z,98225.53
2023-03-13T19:56:34.104Z,98226.69
2023-03-13T19:59:02.050Z,98228.75
2023-03-13T20:01:29.644Z,98227.16
2023-03-13T20:03:56.771Z,98227.72
2023-03-13T20:06:24.883Z,98226.69
2023-03-13T20:08:55.219Z,98228.88
2023-03-13T20:11:22.312Z,98221.19
2023-03-13T20:13:49.345Z,98223.59
2023-03-13T20:16:16.424Z,98228.66
2023-03-13T20:18:44.589Z,98248.97
2023-03-13T20:21:14.551Z,98242.41
2023-03-13T20:23:41.556Z,98250.91
2023-03-13T20:26:10.136Z,98249.63
2023-03-13T20:28:37.977Z,98251.25
2023-03-13T20:31:05.864Z,98256.06
2023-03-13T20:33:32.877Z,98241.25
2023-03-13T20:36:01.017Z,98251.25
2023-03-13T20:38:28.726Z,98248.38
2023-03-13T20:40:57.193Z,98252.06
2023-03-13T20:43:24.447Z,98245.75
2023-03-13T20:45:51.576Z,98251.47
2023-03-13T20:48:19.296Z,98259.16
2023-03-13T20:50:46.540Z,98257.81
2023-03-13T20:53:15.288Z,98257.44
2023-03-13T20:55:42.260Z,98257.13
2023-03-13T20:58:09.341Z,98246.78
2023-03-13T21:00:36.256Z,98239.91
2023-03-13T21:03:03.402Z,98247.00
2023-03-13T21:05:30.729Z,98251.03
2023-03-13T21:07:57.696Z,98256.78
2023-03-13T21:10:24.955Z,98257.00
2023-03-13T21:12:51.841Z,98254.03
2023-03-13T21:15:18.914Z,98233.34
2023-03-13T21:17:45.961Z,98232.53
2023-03-13T21:20:13.020Z,98235.88
2023-03-13T21:22:40.614Z,98228.78
2023-03-13T21:25:08.344Z,98237.28
2023-03-13T21:27:35.986Z,98237.28
2023-03-13T21:30:04.319Z,98237.50
2023-03-13T21:32:31.392Z,98241.63
2023-03-13T21:34:59.778Z,98235.56
2023-03-13T21:37:26.660Z,98236.13
2023-03-13T21:39:53.767Z,98241.41
2023-03-13T21:42:20.669Z,98239.81
2023-03-13T21:44:48.618Z,98241.06
2023-03-13T21:47:24.452Z,98240.50
2023-03-13T21:49:52.426Z,98238.19
2023-03-13T21:52:20.043Z,98235.78
2023-03-13T21:54:47.176Z,98239.22
2023-03-13T21:57:14.665Z,98238.41
2023-03-13T21:59:42.250Z,98239.22
2023-03-13T22:02:11.623Z,98247.72
2023-03-13T22:04:38.563Z,98253.56
2023-03-13T22:07:05.664Z,98258.28
2023-03-13T22:09:33.350Z,98252.53
2023-03-13T22:12:00.436Z,98245.53
2023-03-13T22:14:28.441Z,98245.84
2023-03-13T22:16:55.363Z,98253.09
2023-03-13T22:19:22.623Z,98252.88
2023-03-13T22:21:49.632Z,98251.72
2023-03-13T22:24:17.360Z,98248.25
2023-03-13T22:26:44.246Z,98256.19
2023-03-13T22:29:11.413Z,98256.66
2023-03-13T22:31:38.375Z,98256.41
2023-03-13T22:34:05.368Z,98251.38
2023-03-13T22:36:33.069Z,98249.53
2023-03-13T22:38:59.988Z,98254.34
2023-03-13T22:41:26.965Z,98256.19
2023-03-13T22:43:54.057Z,98252.28
2023-03-13T22:46:21.250Z,98245.94
2023-03-13T22:48:48.269Z,98248.84
2023-03-13T22:51:15.250Z,98248.59
2023-03-13T22:53:42.631Z,98261.03
2023-03-13T22:56:10.437Z,98256.91
2023-03-13T22:58:37.844Z,98257.34
2023-03-13T23:01:06.761Z,98251.22
2023-03-13T23:03:33.724Z,98250.47
2023-03-13T23:06:01.035Z,98246.66
2023-03-13T23:08:27.969Z,98248.75
2023-03-13T23:10:54.842Z,98240.47
2023-03-13T23:13:21.820Z,98232.91
2023-03-13T23:15:55.509Z,98240.34
2023-03-13T23:18:23.548Z,98234.16
2023-03-13T23:20:50.522Z,98239.44
2023-03-13T23:23:17.411Z,98239.69
2023-03-13T23:25:44.379Z,98242.34
2023-03-13T23:28:11.308Z,98244.72
2023-03-13T23:30:38.244Z,98247.34
2023-03-13T23:33:05.129Z,98238.72
2023-03-13T23:35:32.125Z,98235.53
2023-03-13T23:37:59.205Z,98238.19
2023-03-13T23:40:26.778Z,98235.28
2023-03-13T23:42:53.819Z,98235.06
2023-03-13T23:45:20.886Z,98241.38
2023-03-13T23:47:48.238Z,98235.19
2023-03-13T23:50:16.223Z,98236.47
2023-03-13T23:52:43.484Z,98238.31
2023-03-13T23:55:11.269Z,98240.94
2023-03-13T23:57:38.401Z,98239.09
